Bradley, Maine
Current Conditions -  °F | °C
As of 7:53 PM on Wednesday 22 Oct 2014 (Local Time) from KBGR Reporting Station
Light Rain Light Rain  
Wind Chill: 40°   Ceiling: 1000
Heat Index: 46°   Visibility: 2mi
Dew Point: 44°   Wind: 14mph
Humidity: 93%   Direction: 30°NNE
Pressure: 30.16"   Gusts: NA
Location:  44.92°N, 68.63°W
Report Text: KBGR 222353Z 03012KT 2SM -RA BR BKN010 OVC016 08/07 A3016 RMK AO2 SLP213 P0002 60022 T00780067 10089 20078 58006
Loading
Personal Weather Stations






























Interactive Weather Map
Tropical Storm Tracking
New forecast layout! Learn more

10-Day Weather Forecast

Advertisements
Track Severe Weather on mobile